createdAt,value
2023-05-08T00:00:59.649Z,19.73
2023-05-08T00:03:27.953Z,19.52
2023-05-08T00:05:57.010Z,18.88
2023-05-08T00:08:25.232Z,20.00
2023-05-08T00:10:53.776Z,20.88
2023-05-08T00:13:21.842Z,20.92
2023-05-08T00:15:50.644Z,21.08
2023-05-08T00:18:18.345Z,20.30
2023-05-08T00:20:46.614Z,19.73
2023-05-08T00:23:14.628Z,20.30
2023-05-08T00:25:42.661Z,19.33
2023-05-08T00:28:10.397Z,20.83
2023-05-08T00:30:39.360Z,20.85
2023-05-08T00:33:07.350Z,21.73
2023-05-08T00:35:35.386Z,22.08
2023-05-08T00:38:03.801Z,19.35
2023-05-08T00:40:32.066Z,21.90
2023-05-08T00:43:00.225Z,23.52
2023-05-08T00:45:33.907Z,23.75
2023-05-08T00:48:04.335Z,22.48
2023-05-08T00:50:33.317Z,21.60
2023-05-08T00:53:04.060Z,21.77
2023-05-08T00:55:33.665Z,21.88
2023-05-08T00:58:01.543Z,23.38
2023-05-08T01:00:30.078Z,20.02
2023-05-08T01:02:58.969Z,20.58
2023-05-08T01:05:28.641Z,20.30
2023-05-08T01:07:56.936Z,20.60
2023-05-08T01:10:27.095Z,19.95
2023-05-08T01:13:19.895Z,20.15
2023-05-08T01:15:54.581Z,19.13
2023-05-08T01:18:38.387Z,19.38
2023-05-08T01:21:13.622Z,19.17
2023-05-08T01:24:07.595Z,20.35
2023-05-08T01:26:48.341Z,19.27
2023-05-08T01:29:53.480Z,19.40
2023-05-08T01:32:30.932Z,17.80
2023-05-08T01:35:18.308Z,19.63
2023-05-08T01:37:53.831Z,18.58
2023-05-08T01:40:58.856Z,19.05
2023-05-08T01:43:40.260Z,18.27
2023-05-08T01:46:14.148Z,17.17
2023-05-08T01:49:10.158Z,18.00
2023-05-08T01:51:59.871Z,18.40
2023-05-08T01:54:33.382Z,18.42
2023-05-08T01:59:30.419Z,19.05
2023-05-08T02:01:59.407Z,19.50
2023-05-08T02:04:28.187Z,21.33
2023-05-08T02:06:57.466Z,19.25
2023-05-08T02:09:27.422Z,20.70
2023-05-08T02:11:56.272Z,19.67
2023-05-08T02:14:26.448Z,20.13
2023-05-08T02:16:55.300Z,20.75
2023-05-08T02:19:26.034Z,20.33
2023-05-08T02:21:54.678Z,20.55
2023-05-08T02:24:23.946Z,19.08
2023-05-08T02:26:53.171Z,19.20
2023-05-08T02:29:23.276Z,18.05
2023-05-08T02:31:51.570Z,17.90
2023-05-08T02:34:20.800Z,17.55
2023-05-08T02:36:51.436Z,17.98
2023-05-08T02:39:21.062Z,18.73
2023-05-08T02:41:49.064Z,20.25
2023-05-08T02:44:18.422Z,20.85
2023-05-08T02:47:10.647Z,19.73
2023-05-08T02:49:47.130Z,20.08
2023-05-08T02:52:25.844Z,18.17
2023-05-08T02:55:03.082Z,19.35
2023-05-08T02:57:36.729Z,18.45
2023-05-08T03:00:11.535Z,18.58
2023-05-08T03:02:55.035Z,19.00
2023-05-08T03:05:32.333Z,18.33
2023-05-08T03:08:05.947Z,19.35
2023-05-08T03:10:35.760Z,19.17
2023-05-08T03:13:06.592Z,19.98
2023-05-08T03:15:42.341Z,19.98
2023-05-08T03:18:14.402Z,20.23
2023-05-08T03:20:45.964Z,19.58
2023-05-08T03:23:15.813Z,20.55
2023-05-08T03:25:44.286Z,19.67
2023-05-08T03:28:14.463Z,19.75
2023-05-08T03:30:43.896Z,19.90
2023-05-08T03:33:14.715Z,20.30
2023-05-08T03:35:43.051Z,20.75
2023-05-08T03:38:11.027Z,20.15
2023-05-08T03:40:39.508Z,19.20
2023-05-08T03:43:08.187Z,19.35
2023-05-08T03:45:38.783Z,19.67
2023-05-08T03:48:08.593Z,19.40
2023-05-08T03:50:38.806Z,20.13
2023-05-08T03:53:09.809Z,20.35
2023-05-08T03:55:38.461Z,20.83
2023-05-08T03:58:27.020Z,21.67
2023-05-08T04:01:05.334Z,21.83
2023-05-08T04:03:58.439Z,22.02
2023-05-08T04:06:48.602Z,21.42
2023-05-08T04:09:36.946Z,24.00
2023-05-08T04:12:17.456Z,24.00
2023-05-08T04:14:55.556Z,26.75
2023-05-08T04:17:43.702Z,25.17
2023-05-08T04:20:17.127Z,24.73
2023-05-08T04:22:48.771Z,26.55
2023-05-08T04:25:17.904Z,26.60
2023-05-08T04:27:47.347Z,28.50
2023-05-08T04:30:16.168Z,27.35
2023-05-08T04:32:46.858Z,27.75
2023-05-08T04:35:16.457Z,29.80
2023-05-08T04:37:46.047Z,31.70
2023-05-08T04:40:14.535Z,30.40
2023-05-08T04:42:44.214Z,30.00
2023-05-08T04:45:12.555Z,29.83
2023-05-08T04:47:41.553Z,29.55
2023-05-08T04:50:10.086Z,30.55
2023-05-08T04:52:38.571Z,29.40
2023-05-08T04:55:08.270Z,27.02
2023-05-08T04:57:39.220Z,27.57
2023-05-08T05:00:07.357Z,26.40
2023-05-08T05:05:08.416Z,24.35
2023-05-08T05:07:37.243Z,22.13
2023-05-08T05:10:06.569Z,21.88
2023-05-08T05:12:37.138Z,19.75
2023-05-08T05:15:05.866Z,18.77
2023-05-08T05:17:36.274Z,14.40
2023-05-08T05:20:05.142Z,12.23
2023-05-08T05:22:33.809Z,13.50
2023-05-08T05:25:02.244Z,11.68
2023-05-08T05:27:30.435Z,11.38
2023-05-08T05:29:58.951Z,9.30
2023-05-08T05:32:27.837Z,10.20
2023-05-08T05:34:56.177Z,9.00
2023-05-08T05:37:24.691Z,8.55
2023-05-08T05:39:54.433Z,7.70
2023-05-08T05:42:22.977Z,7.13
2023-05-08T05:44:50.714Z,5.45
2023-05-08T05:47:19.094Z,4.63
2023-05-08T05:49:49.294Z,6.15
2023-05-08T05:52:17.543Z,5.40
2023-05-08T05:54:47.197Z,5.40
2023-05-08T05:57:15.916Z,6.03
2023-05-08T05:59:43.677Z,4.90
2023-05-08T06:02:18.986Z,4.53
2023-05-08T06:04:47.888Z,4.50
2023-05-08T06:07:15.862Z,4.13
2023-05-08T06:09:44.128Z,3.85
2023-05-08T06:12:12.282Z,4.10
2023-05-08T06:14:40.575Z,4.20
2023-05-08T06:17:10.005Z,3.45
2023-05-08T06:19:38.126Z,3.85
2023-05-08T06:22:06.421Z,3.13
2023-05-08T06:24:35.929Z,2.95
2023-05-08T06:27:04.485Z,3.25
2023-05-08T06:29:32.368Z,3.30
2023-05-08T06:32:00.876Z,3.40
2023-05-08T06:34:28.807Z,3.10
2023-05-08T06:36:57.275Z,3.00
2023-05-08T06:39:25.292Z,2.75
2023-05-08T06:41:53.642Z,2.33
2023-05-08T06:44:30.030Z,2.40
2023-05-08T06:46:59.376Z,2.33
2023-05-08T06:49:27.024Z,1.95
2023-05-08T06:51:57.714Z,2.67
2023-05-08T06:54:25.772Z,2.05
2023-05-08T06:56:54.752Z,2.17
2023-05-08T06:59:23.498Z,2.25
2023-05-08T07:01:52.019Z,2.70
2023-05-08T07:04:19.952Z,2.60
2023-05-08T07:06:48.167Z,2.58
2023-05-08T07:09:19.784Z,2.80
2023-05-08T07:11:48.372Z,2.55
2023-05-08T07:14:16.137Z,2.90
2023-05-08T07:16:44.339Z,3.03
2023-05-08T07:19:11.725Z,2.60
2023-05-08T07:21:40.500Z,3.00
2023-05-08T07:24:08.753Z,2.53
2023-05-08T07:26:37.059Z,2.65
2023-05-08T07:29:05.064Z,2.83
2023-05-08T07:31:33.506Z,2.65
2023-05-08T07:34:01.481Z,2.65
2023-05-08T07:36:30.840Z,2.50
2023-05-08T07:38:58.837Z,2.38
2023-05-08T07:41:27.667Z,2.25
2023-05-08T07:43:56.452Z,2.35
2023-05-08T07:46:26.037Z,3.03
2023-05-08T07:48:54.631Z,2.20
2023-05-08T07:51:24.327Z,2.22
2023-05-08T07:53:52.792Z,2.53
2023-05-08T07:56:23.532Z,2.00
2023-05-08T07:58:51.775Z,2.05
2023-05-08T08:01:20.415Z,2.08
2023-05-08T08:03:49.099Z,2.28
2023-05-08T08:06:19.248Z,2.28
2023-05-08T08:08:47.934Z,2.10
2023-05-08T08:11:16.705Z,2.08
2023-05-08T08:13:45.294Z,3.22
2023-05-08T08:16:13.970Z,2.08
2023-05-08T08:18:41.880Z,2.10
2023-05-08T08:21:10.337Z,2.80
2023-05-08T08:23:38.890Z,2.45
2023-05-08T08:26:07.593Z,3.05
2023-05-08T08:28:36.055Z,3.00
2023-05-08T08:31:05.519Z,2.60
2023-05-08T08:33:33.948Z,2.67
2023-05-08T08:36:02.773Z,3.00
2023-05-08T08:38:30.963Z,2.67
2023-05-08T08:41:00.195Z,2.33
2023-05-08T08:43:29.723Z,2.50
2023-05-08T08:45:59.871Z,2.90
2023-05-08T08:48:28.838Z,2.33
2023-05-08T08:51:02.175Z,2.63
2023-05-08T08:53:36.874Z,2.78
2023-05-08T08:56:07.213Z,2.88
2023-05-08T08:58:50.221Z,2.95
2023-05-08T09:03:48.372Z,2.95
2023-05-08T09:06:19.926Z,2.83
2023-05-08T09:08:47.976Z,2.53
2023-05-08T09:11:16.498Z,3.03
2023-05-08T09:13:44.560Z,2.60
2023-05-08T09:16:13.266Z,2.22
2023-05-08T09:18:41.528Z,2.72
2023-05-08T09:21:09.609Z,2.55
2023-05-08T09:23:37.425Z,2.78
2023-05-08T09:26:06.036Z,2.47
2023-05-08T09:28:34.635Z,2.88
2023-05-08T09:31:03.384Z,2.42
2023-05-08T09:33:31.897Z,2.63
2023-05-08T09:36:00.773Z,2.70
2023-05-08T09:38:32.964Z,2.45
2023-05-08T09:41:16.535Z,2.75
2023-05-08T09:43:46.845Z,3.08
2023-05-08T09:46:25.679Z,2.85
2023-05-08T09:49:04.256Z,2.58
2023-05-08T09:51:33.860Z,2.83
2023-05-08T09:54:05.146Z,2.70
2023-05-08T09:56:39.706Z,2.37
2023-05-08T09:59:28.661Z,2.88
2023-05-08T10:01:58.218Z,2.50
2023-05-08T10:04:34.378Z,2.70
2023-05-08T10:07:04.521Z,2.30
2023-05-08T10:09:46.836Z,2.40
2023-05-08T10:12:16.512Z,2.35
2023-05-08T10:14:46.760Z,2.28
2023-05-08T10:17:17.032Z,2.15
2023-05-08T10:19:46.600Z,2.60
2023-05-08T10:22:16.966Z,2.60
2023-05-08T10:24:45.726Z,2.97
2023-05-08T10:27:42.813Z,2.75
2023-05-08T10:30:14.921Z,2.67
2023-05-08T10:32:52.195Z,2.20
2023-05-08T10:35:20.899Z,2.45
2023-05-08T10:37:49.989Z,2.30
2023-05-08T10:40:21.200Z,2.33
2023-05-08T10:42:49.869Z,2.60
2023-05-08T10:45:18.494Z,2.60
2023-05-08T10:48:24.808Z,7.03
2023-05-08T10:51:11.846Z,2.33
2023-05-08T10:53:58.396Z,2.63
2023-05-08T10:56:29.333Z,2.40
2023-05-08T10:59:00.406Z,2.72
2023-05-08T11:01:29.999Z,2.40
2023-05-08T11:04:00.556Z,2.45
2023-05-08T11:06:49.752Z,2.45
2023-05-08T11:09:23.956Z,2.58
2023-05-08T11:12:08.712Z,2.15
2023-05-08T11:14:42.807Z,2.45
2023-05-08T11:17:12.250Z,2.55
2023-05-08T11:20:00.268Z,2.38
2023-05-08T11:22:34.554Z,2.60
2023-05-08T11:25:06.730Z,2.60
2023-05-08T11:27:41.777Z,1.95
2023-05-08T11:30:33.737Z,2.22
2023-05-08T11:33:10.213Z,3.00
2023-05-08T11:36:12.293Z,2.08
2023-05-08T11:38:44.463Z,2.13
2023-05-08T11:41:24.346Z,2.20
2023-05-08T11:44:08.436Z,3.65
2023-05-08T11:46:44.229Z,2.58
2023-05-08T11:49:23.818Z,2.10
2023-05-08T11:51:56.922Z,3.88
2023-05-08T11:54:27.166Z,14.73
2023-05-08T11:56:56.585Z,19.73
2023-05-08T11:59:25.202Z,2.80
2023-05-08T12:02:06.860Z,6.13
2023-05-08T12:04:49.839Z,2.08
2023-05-08T12:07:19.389Z,2.95
2023-05-08T12:09:47.944Z,6.72
2023-05-08T12:12:17.644Z,8.23
2023-05-08T12:14:51.201Z,2.40
2023-05-08T12:17:20.528Z,2.08
2023-05-08T12:19:49.439Z,1.95
2023-05-08T12:22:19.017Z,2.13
2023-05-08T12:24:47.939Z,2.05
2023-05-08T12:27:17.893Z,2.05
2023-05-08T12:29:47.423Z,2.42
2023-05-08T12:32:16.598Z,2.60
2023-05-08T12:34:45.174Z,1.90
2023-05-08T12:37:24.159Z,2.13
2023-05-08T12:39:52.155Z,1.83
2023-05-08T12:42:20.583Z,2.13
2023-05-08T12:44:54.422Z,2.20
2023-05-08T12:47:25.125Z,2.20
2023-05-08T12:49:58.793Z,2.33
2023-05-08T12:52:29.273Z,2.10
2023-05-08T12:54:57.547Z,2.38
2023-05-08T12:57:25.793Z,2.40
2023-05-08T13:00:05.107Z,2.10
2023-05-08T13:02:37.237Z,2.08
2023-05-08T13:05:08.124Z,2.63
2023-05-08T13:07:37.026Z,2.00
2023-05-08T13:10:05.942Z,2.70
2023-05-08T13:12:34.873Z,2.15
2023-05-08T13:15:05.088Z,2.05
2023-05-08T13:17:33.710Z,2.10
2023-05-08T13:20:05.167Z,2.15
2023-05-08T13:25:02.475Z,1.98
2023-05-08T13:27:31.024Z,2.33
2023-05-08T13:29:59.066Z,2.97
2023-05-08T13:32:27.484Z,2.33
2023-05-08T13:34:59.403Z,2.10
2023-05-08T13:37:29.288Z,2.00
2023-05-08T13:39:57.631Z,2.67
2023-05-08T13:42:26.290Z,2.92
2023-05-08T13:44:54.954Z,2.38
2023-05-08T13:47:24.543Z,2.08
2023-05-08T13:49:54.046Z,2.15
2023-05-08T13:52:23.500Z,2.20
2023-05-08T13:54:51.399Z,2.13
2023-05-08T13:57:20.197Z,2.35
2023-05-08T13:59:50.449Z,2.25
2023-05-08T14:02:21.336Z,2.50
2023-05-08T14:04:49.607Z,2.22
2023-05-08T14:07:19.073Z,1.90
2023-05-08T14:09:47.140Z,2.38
2023-05-08T14:12:16.700Z,2.33
2023-05-08T14:14:45.096Z,2.42
2023-05-08T14:17:14.200Z,2.10
2023-05-08T14:19:41.713Z,2.13
2023-05-08T14:22:10.068Z,2.17
2023-05-08T14:24:38.614Z,1.83
2023-05-08T14:27:07.014Z,2.42
2023-05-08T14:29:35.057Z,2.28
2023-05-08T14:32:03.844Z,3.10
2023-05-08T14:34:31.881Z,2.10
2023-05-08T14:37:01.329Z,2.50
2023-05-08T14:39:29.976Z,2.13
2023-05-08T14:42:20.677Z,2.60
2023-05-08T14:44:46.306Z,2.30
2023-05-08T14:47:14.721Z,2.50
2023-05-08T14:49:42.874Z,2.83
2023-05-08T14:52:11.064Z,2.55
2023-05-08T14:54:39.638Z,2.50
2023-05-08T14:57:08.522Z,2.53
2023-05-08T14:59:37.089Z,2.78
2023-05-08T15:02:06.940Z,2.33
2023-05-08T15:04:36.450Z,2.58
2023-05-08T15:07:05.694Z,2.30
2023-05-08T15:09:34.007Z,2.67
2023-05-08T15:12:03.720Z,2.08
2023-05-08T15:14:32.004Z,2.80
2023-05-08T15:17:00.429Z,2.40
2023-05-08T15:19:28.417Z,2.20
2023-05-08T15:21:57.150Z,2.38
2023-05-08T15:24:25.516Z,2.10
2023-05-08T15:26:53.781Z,2.13
2023-05-08T15:29:21.800Z,2.17
2023-05-08T15:31:51.010Z,2.40
2023-05-08T15:34:19.354Z,2.15
2023-05-08T15:36:49.193Z,2.80
2023-05-08T15:39:17.032Z,2.42
2023-05-08T15:41:45.681Z,2.72
2023-05-08T15:44:14.314Z,2.60
2023-05-08T15:46:42.897Z,2.33
2023-05-08T15:49:11.677Z,2.33
2023-05-08T15:51:40.824Z,2.42
2023-05-08T15:54:08.733Z,2.38
2023-05-08T15:56:38.033Z,2.15
2023-05-08T15:59:07.070Z,2.50
2023-05-08T16:01:36.562Z,2.20
2023-05-08T16:04:04.997Z,2.38
2023-05-08T16:06:33.079Z,2.22
2023-05-08T16:09:01.597Z,2.25
2023-05-08T16:11:33.188Z,2.20
2023-05-08T16:14:02.140Z,2.40
2023-05-08T16:16:30.945Z,2.40
2023-05-08T16:18:59.177Z,2.40
2023-05-08T16:21:28.159Z,2.10
2023-05-08T16:23:56.608Z,2.63
2023-05-08T16:26:24.474Z,2.58
2023-05-08T16:28:51.915Z,2.75
2023-05-08T16:31:20.074Z,2.42
2023-05-08T16:33:47.705Z,2.40
2023-05-08T16:36:16.296Z,3.00
2023-05-08T16:38:43.972Z,2.17
2023-05-08T16:41:13.704Z,2.60
2023-05-08T16:43:41.595Z,2.30
2023-05-08T16:46:10.113Z,2.30
2023-05-08T16:48:39.892Z,2.63
2023-05-08T16:51:09.241Z,3.15
2023-05-08T16:53:37.362Z,2.10
2023-05-08T16:56:05.844Z,3.00
2023-05-08T16:58:33.527Z,2.35
2023-05-08T17:01:01.400Z,2.63
2023-05-08T17:03:29.214Z,2.13
2023-05-08T17:06:00.835Z,2.40
2023-05-08T17:08:29.244Z,2.53
2023-05-08T17:10:58.175Z,2.42
2023-05-08T17:13:26.275Z,2.70
2023-05-08T17:15:54.687Z,2.40
2023-05-08T17:18:22.714Z,2.58
2023-05-08T17:20:51.165Z,2.92
2023-05-08T17:23:19.282Z,3.10
2023-05-08T17:25:48.322Z,2.22
2023-05-08T17:28:17.555Z,2.92
2023-05-08T17:30:48.141Z,3.20
2023-05-08T17:33:17.039Z,2.70
2023-05-08T17:35:46.747Z,6.55
2023-05-08T17:38:16.169Z,5.50
2023-05-08T17:40:47.061Z,6.78
2023-05-08T17:43:15.217Z,4.70
2023-05-08T17:45:44.599Z,5.80
2023-05-08T17:48:12.717Z,4.00
2023-05-08T17:50:42.665Z,4.00
2023-05-08T17:53:10.635Z,3.42
2023-05-08T17:55:38.970Z,3.15
2023-05-08T17:58:07.110Z,3.03
2023-05-08T18:00:36.512Z,3.00
2023-05-08T18:03:05.401Z,3.10
2023-05-08T18:05:34.053Z,3.13
2023-05-08T18:08:02.439Z,3.22
2023-05-08T18:10:32.733Z,3.67
2023-05-08T18:13:00.887Z,3.28
2023-05-08T18:15:30.054Z,3.35
2023-05-08T18:17:58.801Z,3.40
2023-05-08T18:20:27.443Z,3.00
2023-05-08T18:22:56.227Z,3.25
2023-05-08T18:25:24.406Z,3.28
2023-05-08T18:27:52.677Z,2.90
2023-05-08T18:30:21.371Z,4.07
2023-05-08T18:32:51.186Z,3.85
2023-05-08T18:35:21.941Z,3.88
2023-05-08T18:37:51.164Z,3.63
2023-05-08T18:40:19.902Z,3.50
2023-05-08T18:42:48.184Z,3.83
2023-05-08T18:45:17.206Z,4.05
2023-05-08T18:47:44.995Z,4.40
2023-05-08T18:50:13.681Z,3.97
2023-05-08T18:52:41.679Z,5.43
2023-05-08T18:55:10.651Z,5.97
2023-05-08T18:57:38.505Z,5.70
2023-05-08T19:00:07.450Z,6.28
2023-05-08T19:02:36.217Z,6.90
2023-05-08T19:05:05.163Z,5.72
2023-05-08T19:07:33.737Z,5.43
2023-05-08T19:10:02.137Z,7.03
2023-05-08T19:12:30.197Z,8.10
2023-05-08T19:14:58.529Z,8.00
2023-05-08T19:17:27.134Z,10.07
2023-05-08T19:19:55.876Z,10.07
2023-05-08T19:22:23.676Z,12.27
2023-05-08T19:24:52.214Z,13.48
2023-05-08T19:27:20.489Z,15.02
2023-05-08T19:29:49.137Z,18.75
2023-05-08T19:32:18.019Z,12.55
2023-05-08T19:34:46.911Z,11.82
2023-05-08T19:37:14.894Z,10.18
2023-05-08T19:39:43.403Z,10.63
2023-05-08T19:42:14.101Z,9.95
2023-05-08T19:44:45.841Z,8.90
2023-05-08T19:47:15.217Z,8.20
2023-05-08T19:49:44.097Z,7.45
2023-05-08T19:52:11.901Z,8.65
2023-05-08T19:54:40.544Z,10.50
2023-05-08T19:57:09.061Z,11.13
2023-05-08T19:59:37.716Z,16.10
2023-05-08T20:02:06.646Z,12.82
2023-05-08T20:04:48.699Z,13.10
2023-05-08T20:07:23.768Z,11.48
2023-05-08T20:09:52.233Z,10.25
2023-05-08T20:12:20.787Z,10.90
2023-05-08T20:14:49.526Z,9.88
2023-05-08T20:17:17.433Z,10.13
2023-05-08T20:19:45.908Z,11.60
2023-05-08T20:22:14.584Z,10.90
2023-05-08T20:24:43.594Z,11.18
2023-05-08T20:27:12.114Z,10.48
2023-05-08T20:29:40.955Z,10.32
2023-05-08T20:32:14.374Z,11.88
2023-05-08T20:34:44.879Z,11.02
2023-05-08T20:37:14.548Z,11.35
2023-05-08T20:39:43.448Z,11.70
2023-05-08T20:42:11.433Z,11.35
2023-05-08T20:44:39.867Z,12.52
2023-05-08T20:47:08.297Z,12.55
2023-05-08T20:49:37.176Z,14.73
2023-05-08T20:52:07.668Z,13.88
2023-05-08T20:54:36.268Z,15.38
2023-05-08T20:57:05.140Z,15.50
2023-05-08T20:59:34.181Z,14.63
2023-05-08T21:02:02.339Z,17.63
2023-05-08T21:04:31.272Z,14.23
2023-05-08T21:06:59.817Z,13.27
2023-05-08T21:09:28.385Z,15.30
2023-05-08T21:11:56.710Z,13.10
2023-05-08T21:14:25.001Z,15.48
2023-05-08T21:16:54.652Z,14.32
2023-05-08T21:19:24.171Z,15.20
2023-05-08T21:21:52.114Z,15.27
2023-05-08T21:24:21.658Z,16.40
2023-05-08T21:26:49.540Z,15.77
2023-05-08T21:29:17.966Z,17.48
2023-05-08T21:31:46.911Z,18.70
2023-05-08T21:34:16.545Z,17.73
2023-05-08T21:36:44.466Z,17.02
2023-05-08T21:39:15.357Z,17.40
2023-05-08T21:41:44.031Z,15.18
2023-05-08T21:44:13.620Z,14.77
2023-05-08T21:46:41.740Z,16.17
2023-05-08T21:49:11.321Z,17.67
2023-05-08T21:51:39.719Z,16.40
2023-05-08T21:54:09.361Z,16.15
2023-05-08T21:56:38.356Z,17.92
2023-05-08T21:59:08.223Z,18.02
2023-05-08T22:01:36.128Z,17.98
2023-05-08T22:04:04.593Z,18.90
2023-05-08T22:06:33.871Z,20.00
2023-05-08T22:09:02.781Z,20.08
2023-05-08T22:11:32.028Z,18.85
2023-05-08T22:14:00.077Z,15.20
2023-05-08T22:16:29.451Z,15.82
2023-05-08T22:18:57.368Z,16.38
2023-05-08T22:21:25.113Z,17.10
2023-05-08T22:23:53.222Z,18.33
2023-05-08T22:26:21.360Z,16.35
2023-05-08T22:28:49.682Z,18.25
2023-05-08T22:31:18.201Z,16.85
2023-05-08T22:33:46.365Z,16.40
2023-05-08T22:36:13.876Z,15.85
2023-05-08T22:38:41.998Z,16.42
2023-05-08T22:41:09.436Z,16.02
2023-05-08T22:43:38.328Z,16.67
2023-05-08T22:46:06.900Z,17.55
2023-05-08T22:48:34.907Z,17.27
2023-05-08T22:51:03.552Z,20.98
2023-05-08T22:53:31.499Z,22.80
2023-05-08T22:55:59.759Z,22.60
2023-05-08T22:58:29.516Z,22.45
2023-05-08T23:00:59.993Z,23.30
2023-05-08T23:03:28.199Z,20.10
2023-05-08T23:05:56.930Z,20.85
2023-05-08T23:08:25.045Z,20.88
2023-05-08T23:10:53.340Z,20.58
2023-05-08T23:13:20.846Z,19.50
2023-05-08T23:15:48.899Z,18.40
2023-05-08T23:18:16.293Z,18.75
2023-05-08T23:20:44.088Z,18.35
2023-05-08T23:23:11.470Z,18.77
2023-05-08T23:25:39.506Z,17.42
2023-05-08T23:28:06.813Z,20.88
2023-05-08T23:30:34.661Z,21.75
2023-05-08T23:33:02.777Z,20.75
2023-05-08T23:35:31.929Z,19.67
2023-05-08T23:37:59.221Z,21.80
2023-05-08T23:40:27.466Z,22.02
2023-05-08T23:42:55.130Z,21.73
2023-05-08T23:45:22.975Z,22.88
2023-05-08T23:47:50.534Z,23.67
2023-05-08T23:50:18.614Z,24.50
2023-05-08T23:52:46.405Z,22.45
2023-05-08T23:55:15.043Z,21.40
2023-05-08T23:57:43.273Z,20.25
